Time;durP1;ratioP1;P1;durP2;ratioP2;P2;SDS_P1;SDS_P2;PMS_P1;PMS_P2;Temp;Humidity;BMP_temperature;BMP_pressure;BME280_temperature;BME280_humidity;BME280_pressure;Samples;Min_cycle;Max_cycle;Signal;HPM_P1;HPM_P2
2021/08/23 00:02:32;;;;;;;24.75;15.70;;;;;16.70;101510.00;;;;12842834;22;20177;-81
2021/08/23 00:07:33;;;;;;;24.50;16.05;;;;;16.70;101509.00;;;;12867668;22;20169;-82
2021/08/23 00:12:35;;;;;;;39.73;19.03;;;;;16.70;101504.00;;;;12867362;22;20192;-82
2021/08/23 00:17:36;;;;;;;34.47;19.75;;;;;16.70;101505.00;;;;12865653;22;20284;-82
2021/08/23 00:22:47;;;;;;;30.75;20.42;;;;;16.70;101503.00;;;;12843860;22;20541;-83
2021/08/23 00:27:48;;;;;;;33.08;18.55;;;;;16.70;101503.00;;;;12840345;22;20170;-82
2021/08/23 00:32:50;;;;;;;33.95;18.83;;;;;16.70;101510.00;;;;12867360;22;20216;-82
2021/08/23 00:37:51;;;;;;;32.33;20.73;;;;;16.70;101504.00;;;;12842404;22;20173;-83
2021/08/23 00:42:53;;;;;;;24.73;18.83;;;;;16.70;101502.00;;;;12891859;22;20177;-82
2021/08/23 00:47:54;;;;;;;24.02;17.25;;;;;16.70;101507.00;;;;12891333;22;20180;-84
2021/08/23 00:52:57;;;;;;;25.27;16.33;;;;;16.70;101498.00;;;;12867544;22;20177;-84
2021/08/23 00:58:00;;;;;;;31.52;18.33;;;;;16.70;101503.00;;;;12842171;22;20256;-84
2021/08/23 01:03:14;;;;;;;25.48;16.30;;;;;16.70;101496.00;;;;12868690;22;20409;-81
2021/08/23 01:08:39;;;;;;;30.20;17.77;;;;;16.70;101497.00;;;;12870290;22;20201;-81
2021/08/23 01:13:45;;;;;;;28.30;16.88;;;;;16.70;101498.00;;;;12868927;22;20800;-81
2021/08/23 01:18:46;;;;;;;25.80;17.00;;;;;16.70;101486.00;;;;12895614;22;20267;-82
2021/08/23 01:23:48;;;;;;;30.85;17.13;;;;;16.70;101495.00;;;;12942115;22;20161;-82
2021/08/23 01:29:06;;;;;;;25.23;16.07;;;;;16.70;101509.00;;;;12870422;22;20193;-81
2021/08/23 01:34:09;;;;;;;18.02;13.73;;;;;16.70;101501.00;;;;12870125;22;20505;-82
2021/08/23 01:39:10;;;;;;;21.48;13.48;;;;;16.70;101515.00;;;;12870858;22;20173;-81
2021/08/23 01:44:12;;;;;;;24.85;11.93;;;;;16.70;101510.00;;;;12846136;22;20502;-80
2021/08/23 01:49:13;;;;;;;19.95;10.77;;;;;16.70;101518.00;;;;12870234;22;20194;-82
2021/08/23 01:54:14;;;;;;;20.67;11.20;;;;;16.70;101508.00;;;;12941328;22;20170;-81
2021/08/23 01:59:15;;;;;;;18.77;10.30;;;;;16.70;101509.00;;;;12892877;22;20177;-81
2021/08/23 02:04:16;;;;;;;19.15;10.57;;;;;16.70;101506.00;;;;12843215;22;20169;-80
2021/08/23 02:09:18;;;;;;;19.77;10.60;;;;;16.70;101511.00;;;;12844324;22;20194;-81
2021/08/23 02:14:19;;;;;;;14.10;9.43;;;;;16.70;101502.00;;;;12893415;22;20264;-81
2021/08/23 02:19:20;;;;;;;14.55;9.38;;;;;16.70;101505.00;;;;12867864;22;20207;-81
2021/08/23 02:24:24;;;;;;;20.15;10.18;;;;;16.70;101501.00;;;;12900352;22;20176;-81
2021/08/23 02:29:25;;;;;;;14.32;9.02;;;;;16.70;101512.00;;;;12874894;22;20232;-80
2021/08/23 02:34:26;;;;;;;18.77;10.20;;;;;16.70;101516.00;;;;12899872;22;20223;-81
2021/08/23 02:39:27;;;;;;;19.65;9.70;;;;;16.70;101510.00;;;;12876723;22;20185;-83
2021/08/23 02:44:29;;;;;;;19.85;10.40;;;;;16.60;101521.00;;;;12850239;22;20173;-83
2021/08/23 02:49:30;;;;;;;20.05;10.88;;;;;16.60;101527.00;;;;12849921;22;20284;-81
2021/08/23 02:54:31;;;;;;;19.67;11.63;;;;;16.60;101536.00;;;;12874882;22;20609;-81
2021/08/23 02:59:32;;;;;;;23.23;11.68;;;;;16.60;101531.00;;;;12873415;22;20177;-80
2021/08/23 03:04:33;;;;;;;18.17;12.90;;;;;16.60;101529.00;;;;12872126;22;20173;-80
2021/08/23 03:09:34;;;;;;;18.90;13.63;;;;;16.60;101529.00;;;;12849011;22;20284;-80
2021/08/23 03:14:36;;;;;;;25.00;12.57;;;;;16.60;101523.00;;;;12873583;22;20185;-80
2021/08/23 03:19:37;;;;;;;21.17;12.45;;;;;16.60;101535.00;;;;12872551;22;20193;-80
2021/08/23 03:24:38;;;;;;;24.90;15.18;;;;;16.60;101533.00;;;;12847411;22;20482;-80
2021/08/23 03:29:53;;;;;;;28.20;15.75;;;;;16.70;101537.00;;;;12851785;22;20193;-80
2021/08/23 03:34:54;;;;;;;22.98;14.05;;;;;16.70;101539.00;;;;12869325;22;20177;-80
2021/08/23 03:39:55;;;;;;;22.57;15.77;;;;;16.70;101542.00;;;;12893182;22;20316;-82
2021/08/23 03:44:57;;;;;;;24.50;15.85;;;;;16.70;101549.00;;;;12868852;22;20181;-82
2021/08/23 03:49:58;;;;;;;23.67;16.88;;;;;16.70;101547.00;;;;12843628;22;20197;-83
2021/08/23 03:54:59;;;;;;;26.45;17.42;;;;;16.60;101543.00;;;;12843883;22;20181;-83
2021/08/23 04:00:04;;;;;;;24.50;17.80;;;;;16.60;101548.00;;;;12868735;22;20181;-83
2021/08/23 04:05:07;;;;;;;30.42;20.88;;;;;16.60;101556.00;;;;12892442;22;20597;-82
2021/08/23 04:10:10;;;;;;;30.73;21.20;;;;;16.60;101554.00;;;;12868876;22;20572;-83
2021/08/23 04:15:11;;;;;;;29.27;24.50;;;;;16.60;101560.00;;;;12868502;22;20177;-82
2021/08/23 04:20:12;;;;;;;29.67;23.65;;;;;16.60;101578.00;;;;12868888;22;20512;-81
2021/08/23 04:25:13;;;;;;;31.63;24.55;;;;;16.60;101556.00;;;;12867332;22;20165;-81
2021/08/23 04:30:15;;;;;;;38.85;24.58;;;;;16.60;101581.00;;;;12868432;22;20232;-81
2021/08/23 04:35:16;;;;;;;30.90;22.40;;;;;16.60;101586.00;;;;12867802;22;20170;-81
2021/08/23 04:40:17;;;;;;;31.05;24.38;;;;;16.60;101589.00;;;;12868872;22;20169;-80
2021/08/23 04:45:19;;;;;;;40.13;27.25;;;;;16.70;101604.00;;;;12891842;22;20506;-81
2021/08/23 04:50:20;;;;;;;41.92;27.58;;;;;16.70;101605.00;;;;12867043;22;20255;-80
2021/08/23 04:55:21;;;;;;;36.22;27.35;;;;;16.70;101613.00;;;;12891300;22;20533;-80
2021/08/23 05:00:23;;;;;;;32.95;26.13;;;;;16.70;101619.00;;;;12867949;22;20240;-80
2021/08/23 05:05:24;;;;;;;33.20;28.13;;;;;16.70;101624.00;;;;12844405;22;20177;-79
2021/08/23 05:10:25;;;;;;;30.43;25.13;;;;;16.80;101634.00;;;;12893401;22;20301;-79
2021/08/23 05:15:26;;;;;;;35.10;24.23;;;;;16.80;101636.00;;;;12868371;22;20497;-79
2021/08/23 05:20:28;;;;;;;35.65;27.45;;;;;16.90;101648.00;;;;12892819;22;20481;-80
2021/08/23 05:25:33;;;;;;;37.80;28.27;;;;;16.90;101651.00;;;;12894149;22;20174;-79
2021/08/23 05:30:34;;;;;;;38.13;29.05;;;;;17.00;101647.00;;;;12843228;22;20194;-79
2021/08/23 05:35:36;;;;;;;39.38;29.77;;;;;16.90;101656.00;;;;12892301;22;20182;-79
2021/08/23 05:40:37;;;;;;;40.97;29.75;;;;;16.90;101660.00;;;;12891624;22;20224;-79
2021/08/23 05:45:41;;;;;;;39.85;28.13;;;;;17.00;101658.00;;;;12867425;22;20180;-79
2021/08/23 05:50:42;;;;;;;40.90;28.77;;;;;17.00;101671.00;;;;12891184;22;20224;-79
2021/08/23 05:55:43;;;;;;;37.63;25.83;;;;;17.10;101668.00;;;;12866353;23;20169;-77
2021/08/23 06:00:46;;;;;;;29.30;20.98;;;;;17.30;101668.00;;;;12865444;22;20212;-78
2021/08/23 06:05:48;;;;;;;30.08;22.90;;;;;17.40;101677.00;;;;12867178;22;20722;-78
2021/08/23 06:10:49;;;;;;;34.90;27.58;;;;;17.50;101698.00;;;;12912245;22;20279;-78
2021/08/23 06:15:53;;;;;;;30.40;24.00;;;;;17.40;101693.00;;;;12889893;22;20220;-79
2021/08/23 06:20:57;;;;;;;34.20;24.95;;;;;17.20;101699.00;;;;12885283;22;20201;-78
2021/08/23 06:25:59;;;;;;;34.55;24.05;;;;;17.30;101705.00;;;;12895017;22;20169;-78
2021/08/23 06:31:02;;;;;;;34.45;25.00;;;;;17.30;101710.00;;;;12842565;22;20197;-78
2021/08/23 06:36:03;;;;;;;33.03;23.40;;;;;17.40;101718.00;;;;12865929;22;20169;-78
2021/08/23 06:41:06;;;;;;;35.90;24.25;;;;;17.30;101723.00;;;;12916141;22;20166;-78
2021/08/23 06:46:07;;;;;;;30.70;22.33;;;;;17.40;101727.00;;;;12867173;22;20170;-78
2021/08/23 06:51:09;;;;;;;31.65;21.63;;;;;17.50;101734.00;;;;12865290;22;20197;-78
2021/08/23 06:56:10;;;;;;;27.38;19.65;;;;;17.70;101728.00;;;;12912832;22;20169;-78
2021/08/23 07:01:11;;;;;;;28.92;20.63;;;;;17.90;101740.00;;;;12920969;22;20181;-78
2021/08/23 07:06:14;;;;;;;26.27;18.60;;;;;17.70;101749.00;;;;12888844;22;20174;-79
2021/08/23 07:11:19;;;;;;;29.00;18.25;;;;;17.80;101763.00;;;;12892981;22;20201;-78
2021/08/23 07:16:20;;;;;;;26.50;18.50;;;;;17.70;101757.00;;;;12892178;22;20649;-78
2021/08/23 07:21:21;;;;;;;27.35;18.75;;;;;17.70;101768.00;;;;12867729;22;20216;-78
2021/08/23 07:26:22;;;;;;;28.27;19.55;;;;;17.90;101767.00;;;;12888726;22;20208;-78
2021/08/23 07:31:24;;;;;;;34.42;22.25;;;;;17.70;101774.00;;;;12844362;23;20208;-78
2021/08/23 07:36:25;;;;;;;33.17;20.80;;;;;17.90;101780.00;;;;12941078;22;20472;-78
2021/08/23 07:41:26;;;;;;;35.88;23.13;;;;;17.80;101784.00;;;;12939643;22;20174;-78
2021/08/23 07:46:28;;;;;;;36.53;24.23;;;;;17.60;101797.00;;;;12892910;22;20264;-78
2021/08/23 07:51:29;;;;;;;39.13;25.25;;;;;17.60;101799.00;;;;12867888;22;20189;-78
2021/08/23 07:56:30;;;;;;;36.33;24.20;;;;;18.00;101806.00;;;;12844340;22;20223;-78
2021/08/23 08:01:31;;;;;;;41.28;27.50;;;;;18.30;101802.00;;;;12938077;22;20162;-78
2021/08/23 08:06:33;;;;;;;36.42;24.83;;;;;18.10;101809.00;;;;12889828;22;20169;-77
2021/08/23 08:11:36;;;;;;;34.78;23.52;;;;;18.40;101812.00;;;;12937112;22;20261;-77
2021/08/23 08:16:37;;;;;;;33.42;23.08;;;;;18.70;101818.00;;;;12840646;22;20698;-77
2021/08/23 08:21:39;;;;;;;32.33;23.45;;;;;18.50;101825.00;;;;12865025;22;20236;-76
2021/08/23 08:26:40;;;;;;;30.88;23.98;;;;;18.20;101827.00;;;;12887441;22;20176;-76
2021/08/23 08:31:41;;;;;;;31.17;23.88;;;;;18.10;101842.00;;;;12890183;22;20194;-78
2021/08/23 08:36:42;;;;;;;34.95;26.48;;;;;18.00;101848.00;;;;12939205;22;20166;-77
2021/08/23 08:41:44;;;;;;;31.33;25.00;;;;;18.30;101846.00;;;;12912290;22;20201;-79
2021/08/23 08:46:45;;;;;;;30.95;25.63;;;;;18.40;101860.00;;;;12866554;22;20609;-78
2021/08/23 08:51:47;;;;;;;30.70;25.13;;;;;18.50;101873.00;;;;12889040;22;20696;-78
2021/08/23 08:56:48;;;;;;;27.85;24.50;;;;;18.60;101880.00;;;;12936581;22;20562;-79
2021/08/23 09:01:49;;;;;;;27.95;23.63;;;;;18.50;101887.00;;;;12866594;22;20169;-78
2021/08/23 09:06:53;;;;;;;28.92;22.95;;;;;18.40;101883.00;;;;12865849;22;20251;-78
2021/08/23 09:12:00;;;;;;;34.50;24.52;;;;;19.00;101890.00;;;;12866755;22;20201;-78
2021/08/23 09:17:04;;;;;;;25.75;22.85;;;;;19.30;101899.00;;;;12911385;22;20878;-79
2021/08/23 09:22:18;;;;;;;23.83;20.88;;;;;19.90;101907.00;;;;12936171;22;20782;-78
2021/08/23 09:27:20;;;;;;;21.73;19.52;;;;;20.00;101926.00;;;;12890860;22;20621;-77
2021/08/23 09:32:30;;;;;;;21.17;17.05;;;;;19.60;101931.00;;;;12889308;22;20202;-77
2021/08/23 09:37:32;;;;;;;17.95;16.05;;;;;19.10;101922.00;;;;12865823;22;20174;-77
2021/08/23 09:42:33;;;;;;;19.83;16.75;;;;;19.40;101930.00;;;;12935268;22;20180;-78
2021/08/23 09:47:35;;;;;;;20.92;17.33;;;;;19.30;101923.00;;;;12863504;22;20219;-78
2021/08/23 09:52:36;;;;;;;17.55;15.75;;;;;19.30;101923.00;;;;12864274;22;20248;-78
2021/08/23 09:57:38;;;;;;;18.77;16.70;;;;;19.20;101913.00;;;;12888287;22;20254;-78
2021/08/23 10:02:47;;;;;;;24.67;18.70;;;;;19.50;101915.00;;;;12864725;22;20260;-78
2021/08/23 10:07:48;;;;;;;19.77;17.70;;;;;20.70;101914.00;;;;12863368;22;20209;-78
2021/08/23 10:12:51;;;;;;;18.80;16.90;;;;;21.50;101933.00;;;;12890135;23;20443;-77
2021/08/23 10:17:54;;;;;;;18.38;15.50;;;;;21.70;101942.00;;;;12885597;22;20272;-75
2021/08/23 10:22:58;;;;;;;16.13;14.52;;;;;21.10;101937.00;;;;12884212;22;20177;-76
2021/08/23 10:28:05;;;;;;;16.95;13.60;;;;;20.40;101930.00;;;;12884868;22;20588;-75
2021/08/23 10:33:17;;;;;;;13.02;10.98;;;;;20.70;101918.00;;;;12862094;22;20267;-76
2021/08/23 10:38:20;;;;;;;14.80;10.68;;;;;21.10;101923.00;;;;12887070;22;20166;-76
2021/08/23 10:43:27;;;;;;;10.30;9.38;;;;;20.70;101921.00;;;;12864953;22;20966;-76
2021/08/23 10:48:28;;;;;;;10.85;8.15;;;;;20.30;101915.00;;;;12890971;22;20170;-77
2021/08/23 10:53:37;;;;;;;8.57;7.60;;;;;20.10;101918.00;;;;12914807;22;20176;-76
2021/08/23 10:58:39;;;;;;;8.82;7.28;;;;;20.00;101915.00;;;;12920146;22;20180;-78
2021/08/23 11:03:40;;;;;;;9.52;7.40;;;;;20.20;101913.00;;;;12871270;22;20178;-79
2021/08/23 11:08:42;;;;;;;9.27;7.57;;;;;20.50;101911.00;;;;12940949;22;20213;-79
2021/08/23 11:13:44;;;;;;;8.75;7.32;;;;;20.90;101927.00;;;;12869005;22;20689;-78
2021/08/23 11:18:45;;;;;;;7.80;7.03;;;;;21.50;101923.00;;;;12920437;22;20201;-79
2021/08/23 11:23:48;;;;;;;9.55;7.43;;;;;21.90;101929.00;;;;12931575;22;20180;-75
2021/08/23 11:28:49;;;;;;;9.80;7.07;;;;;22.30;101931.00;;;;12857799;23;20193;-75
2021/08/23 11:33:50;;;;;;;8.85;7.38;;;;;22.40;101916.00;;;;12888558;22;20215;-75
2021/08/23 11:38:51;;;;;;;7.28;6.47;;;;;21.90;101918.00;;;;12886751;22;20259;-76
2021/08/23 11:44:04;;;;;;;7.90;7.10;;;;;22.30;101925.00;;;;12888833;22;20169;-76
2021/08/23 11:49:05;;;;;;;10.20;6.28;;;;;22.40;101924.00;;;;12838915;22;20248;-76
2021/08/23 11:54:06;;;;;;;10.27;6.85;;;;;21.80;101933.00;;;;12928563;22;20976;-76
2021/08/23 11:59:18;;;;;;;11.18;6.63;;;;;21.20;101922.00;;;;12862804;22;20176;-76
2021/08/23 12:04:23;;;;;;;9.80;7.13;;;;;21.60;101916.00;;;;12935591;22;20227;-76
2021/08/23 12:09:24;;;;;;;7.70;6.78;;;;;22.20;101920.00;;;;12913209;22;20336;-77
2021/08/23 12:14:28;;;;;;;7.97;7.18;;;;;21.50;101925.00;;;;12864533;22;20174;-75
2021/08/23 12:19:31;;;;;;;9.45;6.85;;;;;20.80;101919.00;;;;12933149;22;20197;-76
2021/08/23 12:24:33;;;;;;;10.10;6.10;;;;;20.80;101921.00;;;;12908998;22;20173;-76
2021/08/23 12:29:38;;;;;;;7.57;6.35;;;;;20.60;101923.00;;;;12864847;22;20201;-77
2021/08/23 12:34:42;;;;;;;7.30;6.50;;;;;20.50;101928.00;;;;12858248;22;20265;-77
2021/08/23 12:39:45;;;;;;;8.43;5.93;;;;;20.60;101936.00;;;;12863981;22;20651;-76
2021/08/23 12:44:47;;;;;;;9.40;6.45;;;;;20.50;101938.00;;;;12864636;22;20174;-77
2021/08/23 12:49:49;;;;;;;10.45;6.00;;;;;20.60;101933.00;;;;12932633;22;20192;-76
2021/08/23 12:54:50;;;;;;;8.73;5.95;;;;;20.70;101936.00;;;;12887634;22;20186;-77
2021/08/23 12:59:55;;;;;;;7.75;5.40;;;;;20.90;101941.00;;;;12863889;22;20223;-79
2021/08/23 13:04:56;;;;;;;7.18;5.00;;;;;21.40;101947.00;;;;12915389;22;20193;-76
2021/08/23 13:09:57;;;;;;;6.80;5.07;;;;;22.10;101952.00;;;;12887206;22;20193;-77
2021/08/23 13:14:58;;;;;;;6.38;4.85;;;;;21.90;101952.00;;;;12864251;22;20556;-76
2021/08/23 13:20:00;;;;;;;8.57;4.82;;;;;21.70;101943.00;;;;12886910;22;20189;-76
2021/08/23 13:25:02;;;;;;;9.52;4.95;;;;;21.70;101946.00;;;;12862617;22;20468;-76
2021/08/23 13:30:04;;;;;;;5.88;4.43;;;;;22.00;101934.00;;;;12861380;22;20516;-76
2021/08/23 13:35:05;;;;;;;7.45;4.03;;;;;22.30;101935.00;;;;12864089;22;20165;-76
2021/08/23 13:40:07;;;;;;;4.60;3.97;;;;;22.80;101939.00;;;;12886072;22;20644;-76
2021/08/23 13:45:09;;;;;;;8.98;4.97;;;;;22.50;101948.00;;;;12886023;22;20177;-76
2021/08/23 13:50:11;;;;;;;8.10;4.28;;;;;22.60;101940.00;;;;12884279;22;20195;-77
2021/08/23 13:55:13;;;;;;;6.47;4.10;;;;;23.00;101934.00;;;;12836986;22;20204;-77
2021/08/23 14:00:14;;;;;;;8.10;4.03;;;;;23.30;101935.00;;;;12910202;22;20165;-77
2021/08/23 14:05:16;;;;;;;7.82;4.53;;;;;23.30;101934.00;;;;12912752;22;20161;-77
2021/08/23 14:10:21;;;;;;;6.05;3.38;;;;;23.20;101946.00;;;;12891710;22;20193;-77
2021/08/23 14:15:23;;;;;;;8.52;4.38;;;;;23.20;101938.00;;;;12864754;22;20833;-77
2021/08/23 14:20:24;;;;;;;6.00;4.13;;;;;23.50;101934.00;;;;12863555;22;20177;-77
2021/08/23 14:25:25;;;;;;;9.13;4.38;;;;;23.60;101930.00;;;;12887747;22;20169;-77
2021/08/23 14:30:26;;;;;;;7.72;4.43;;;;;23.60;101937.00;;;;12887094;22;20193;-77
2021/08/23 14:35:27;;;;;;;11.27;4.78;;;;;22.70;101939.00;;;;12887379;22;20505;-78
2021/08/23 14:40:29;;;;;;;10.27;4.03;;;;;22.80;101931.00;;;;12889677;22;20176;-77
2021/08/23 14:45:30;;;;;;;5.68;3.92;;;;;23.00;101943.00;;;;12863541;22;20972;-78
2021/08/23 14:50:32;;;;;;;7.70;4.55;;;;;23.00;101945.00;;;;12863815;23;20205;-77
2021/08/23 14:55:33;;;;;;;4.97;4.00;;;;;22.70;101931.00;;;;12863822;22;20425;-77
2021/08/23 15:00:35;;;;;;;5.95;4.72;;;;;22.60;101944.00;;;;12863137;23;20613;-76
2021/08/23 15:05:36;;;;;;;7.53;4.63;;;;;22.30;101942.00;;;;12912851;22;20205;-77
2021/08/23 15:10:37;;;;;;;4.60;4.20;;;;;21.80;101948.00;;;;12861771;22;20200;-77
2021/08/23 15:15:39;;;;;;;4.75;3.42;;;;;21.50;101948.00;;;;12913376;22;20857;-77
2021/08/23 15:20:45;;;;;;;5.18;3.72;;;;;21.50;101953.00;;;;12876671;22;20277;-76
2021/08/23 15:25:48;;;;;;;7.10;4.35;;;;;21.40;101952.00;;;;12870960;22;20173;-77
2021/08/23 15:30:49;;;;;;;7.00;4.28;;;;;21.10;101958.00;;;;12887553;22;20252;-77
2021/08/23 15:35:51;;;;;;;4.70;3.75;;;;;20.90;101954.00;;;;12888646;22;20568;-77
2021/08/23 15:40:54;;;;;;;7.80;3.92;;;;;20.90;101958.00;;;;12839571;22;20648;-77
2021/08/23 15:45:55;;;;;;;7.07;3.50;;;;;21.00;101963.00;;;;12889587;22;20801;-77
2021/08/23 15:50:57;;;;;;;8.90;4.20;;;;;21.00;101972.00;;;;12839774;22;20247;-77
2021/08/23 15:55:58;;;;;;;5.18;3.53;;;;;20.90;101972.00;;;;12863990;22;20260;-77
2021/08/23 16:01:01;;;;;;;8.48;4.22;;;;;20.80;101967.00;;;;12888470;22;20614;-77
2021/08/23 16:06:03;;;;;;;6.50;4.20;;;;;20.70;101975.00;;;;12908019;22;20249;-77
2021/08/23 16:11:08;;;;;;;7.57;3.67;;;;;20.70;101972.00;;;;12889017;22;20194;-77
2021/08/23 16:16:09;;;;;;;6.28;3.58;;;;;20.60;101966.00;;;;12889059;22;20205;-77
2021/08/23 16:21:11;;;;;;;6.97;4.00;;;;;20.60;101967.00;;;;12887968;22;20173;-76
2021/08/23 16:26:12;;;;;;;4.72;4.10;;;;;20.50;101965.00;;;;12890452;22;20176;-77
2021/08/23 16:31:14;;;;;;;6.05;3.63;;;;;20.50;101970.00;;;;12887478;22;20190;-77
2021/08/23 16:36:15;;;;;;;8.68;4.38;;;;;20.60;101976.00;;;;12887559;22;20471;-76
2021/08/23 16:41:18;;;;;;;6.50;3.70;;;;;20.60;101969.00;;;;12887737;22;20382;-77
2021/08/23 16:46:21;;;;;;;5.20;4.30;;;;;20.50;101968.00;;;;12887177;23;20170;-77
2021/08/23 16:51:22;;;;;;;13.65;8.02;;;;;20.40;101963.00;;;;12863126;22;20211;-77
2021/08/23 16:56:23;;;;;;;14.35;10.05;;;;;20.30;101962.00;;;;12863214;22;20657;-77
2021/08/23 17:01:27;;;;;;;9.93;6.07;;;;;20.30;101962.00;;;;12886844;22;20177;-77
2021/08/23 17:06:30;;;;;;;5.63;4.07;;;;;20.30;101953.00;;;;12907641;22;20162;-78
2021/08/23 17:11:31;;;;;;;6.43;3.78;;;;;20.20;101958.00;;;;12863831;22;20201;-77
2021/08/23 17:16:33;;;;;;;6.10;4.00;;;;;20.10;101950.00;;;;12887249;22;20197;-78
2021/08/23 17:21:34;;;;;;;5.68;3.00;;;;;20.00;101949.00;;;;12888690;22;20624;-77
2021/08/23 17:26:35;;;;;;;5.80;3.45;;;;;20.00;101954.00;;;;12889896;22;20173;-76
2021/08/23 17:31:37;;;;;;;6.30;3.30;;;;;19.90;101950.00;;;;12910803;22;20193;-77
2021/08/23 17:36:38;;;;;;;4.88;3.53;;;;;19.80;101950.00;;;;12889801;22;20173;-77
2021/08/23 17:41:39;;;;;;;5.43;3.33;;;;;19.70;101952.00;;;;12890193;22;20173;-76
2021/08/23 17:46:40;;;;;;;5.00;3.72;;;;;19.60;101956.00;;;;12937636;22;20212;-76
2021/08/23 17:51:43;;;;;;;5.70;4.03;;;;;19.50;101956.00;;;;12865614;22;20624;-76
2021/08/23 17:56:44;;;;;;;9.02;4.03;;;;;19.40;101959.00;;;;12912788;22;20174;-76
2021/08/23 18:01:45;;;;;;;6.47;3.63;;;;;19.40;101970.00;;;;12866389;22;20295;-76
2021/08/23 18:06:48;;;;;;;6.03;4.10;;;;;19.30;101973.00;;;;12892110;22;20170;-77
2021/08/23 18:11:49;;;;;;;5.50;4.28;;;;;19.20;101975.00;;;;12890517;23;20647;-76
2021/08/23 18:16:50;;;;;;;8.95;4.00;;;;;19.10;101971.00;;;;12889662;22;20190;-77
2021/08/23 18:21:53;;;;;;;8.70;4.55;;;;;19.00;101975.00;;;;12863667;22;20173;-77
2021/08/23 18:26:54;;;;;;;8.43;4.45;;;;;19.00;101982.00;;;;12864988;22;20177;-76
2021/08/23 18:31:55;;;;;;;7.82;5.00;;;;;18.90;101982.00;;;;12840793;22;20229;-76
2021/08/23 18:36:56;;;;;;;9.40;4.55;;;;;18.90;101979.00;;;;12889481;22;20254;-76
2021/08/23 18:41:57;;;;;;;6.78;4.85;;;;;18.80;101982.00;;;;12889107;22;20244;-76
2021/08/23 18:46:59;;;;;;;5.93;4.40;;;;;18.80;101998.00;;;;12935356;22;20759;-76
2021/08/23 18:52:00;;;;;;;6.03;4.55;;;;;18.80;102001.00;;;;12888783;22;20196;-77
2021/08/23 18:57:01;;;;;;;7.90;4.30;;;;;18.80;102002.00;;;;12864681;22;20209;-77
2021/08/23 19:02:03;;;;;;;7.72;4.90;;;;;18.70;102012.00;;;;12862311;22;20173;-77
2021/08/23 19:07:05;;;;;;;6.88;5.07;;;;;18.70;102001.00;;;;12866112;22;20612;-77
2021/08/23 19:12:06;;;;;;;8.70;5.07;;;;;18.60;101999.00;;;;12916862;22;20528;-76
2021/08/23 19:17:11;;;;;;;6.63;5.45;;;;;18.50;102014.00;;;;12961729;22;20185;-77
2021/08/23 19:22:12;;;;;;;8.02;5.10;;;;;18.50;102012.00;;;;12866836;22;20228;-77
2021/08/23 19:27:13;;;;;;;6.82;4.97;;;;;18.40;102022.00;;;;12866786;22;20623;-76
2021/08/23 19:32:14;;;;;;;9.88;5.80;;;;;18.40;102035.00;;;;12865260;22;20205;-77
2021/08/23 19:37:15;;;;;;;6.78;4.78;;;;;18.40;102045.00;;;;12864793;22;20177;-77
2021/08/23 19:42:17;;;;;;;7.38;4.57;;;;;18.40;102053.00;;;;12864653;22;20224;-77
2021/08/23 19:47:21;;;;;;;4.85;4.38;;;;;18.40;102064.00;;;;12842825;22;20170;-76
2021/08/23 19:52:25;;;;;;;5.47;3.83;;;;;18.40;102068.00;;;;12866066;22;20197;-76
2021/08/23 19:57:26;;;;;;;8.65;4.20;;;;;18.40;102082.00;;;;12889545;22;20180;-77
2021/08/23 20:02:27;;;;;;;7.22;3.97;;;;;18.40;102073.00;;;;12864673;22;20628;-76
2021/08/23 20:07:28;;;;;;;6.40;3.13;;;;;18.40;102083.00;;;;12936849;22;20169;-76
2021/08/23 20:12:30;;;;;;;3.70;2.65;;;;;18.30;102081.00;;;;12839589;22;20201;-77
2021/08/23 20:17:31;;;;;;;5.28;2.70;;;;;18.30;102079.00;;;;12840063;22;20194;-77
2021/08/23 20:22:34;;;;;;;6.28;2.40;;;;;18.20;102083.00;;;;12864716;23;20180;-76
2021/08/23 20:27:35;;;;;;;4.28;2.40;;;;;18.10;102092.00;;;;12889625;23;20166;-76
2021/08/23 20:32:37;;;;;;;3.53;2.80;;;;;18.00;102090.00;;;;12890679;22;20201;-77
2021/08/23 20:37:52;;;;;;;5.55;2.72;;;;;17.90;102079.00;;;;12911606;22;20249;-76
2021/08/23 20:42:58;;;;;;;2.95;2.33;;;;;17.70;102089.00;;;;12914896;22;20176;-77
2021/08/23 20:48:01;;;;;;;3.92;2.50;;;;;17.50;102082.00;;;;12890359;22;20225;-76
2021/08/23 20:53:04;;;;;;;12.40;3.28;;;;;17.30;102081.00;;;;12889842;22;20196;-76
2021/08/23 20:58:06;;;;;;;3.45;2.75;;;;;17.10;102070.00;;;;12889977;22;20177;-77
2021/08/23 21:03:07;;;;;;;5.07;2.50;;;;;17.00;102078.00;;;;12864536;22;20181;-76
2021/08/23 21:08:09;;;;;;;3.17;2.15;;;;;16.80;102082.00;;;;12890208;22;20174;-77
2021/08/23 21:13:10;;;;;;;4.72;2.60;;;;;16.70;102081.00;;;;12937612;22;20189;-77
2021/08/23 21:18:11;;;;;;;4.18;2.42;;;;;16.60;102081.00;;;;12864456;22;20197;-77
2021/08/23 21:23:13;;;;;;;5.00;3.00;;;;;16.50;102083.00;;;;12889113;22;20185;-76
2021/08/23 21:28:14;;;;;;;9.57;2.78;;;;;16.40;102082.00;;;;12864147;22;20204;-76
2021/08/23 21:33:15;;;;;;;5.88;2.42;;;;;16.30;102086.00;;;;12863669;22;20517;-77
2021/08/23 21:38:16;;;;;;;3.85;2.35;;;;;16.20;102084.00;;;;12864640;22;20165;-77
2021/08/23 21:43:18;;;;;;;3.55;2.65;;;;;16.10;102083.00;;;;12889405;22;20177;-77
2021/08/23 21:48:19;;;;;;;6.95;2.65;;;;;16.10;102095.00;;;;12864903;22;20170;-76
2021/08/23 21:53:21;;;;;;;4.72;2.65;;;;;16.10;102090.00;;;;12889161;22;20616;-76
2021/08/23 21:58:22;;;;;;;5.88;2.97;;;;;16.20;102091.00;;;;12913905;22;20194;-77
2021/08/23 22:03:23;;;;;;;4.93;2.75;;;;;16.30;102090.00;;;;12888346;22;20170;-77
2021/08/23 22:08:25;;;;;;;8.43;3.00;;;;;16.30;102095.00;;;;12910405;22;20185;-76
2021/08/23 22:13:26;;;;;;;8.68;3.17;;;;;16.20;102095.00;;;;12863213;22;20200;-76
2021/08/23 22:18:27;;;;;;;9.15;3.13;;;;;16.10;102097.00;;;;12864430;22;20194;-77
2021/08/23 22:23:28;;;;;;;4.57;2.77;;;;;16.00;102101.00;;;;12887714;22;20165;-77
2021/08/23 22:28:30;;;;;;;6.37;3.37;;;;;15.90;102091.00;;;;12888389;22;20185;-76
2021/08/23 22:33:31;;;;;;;7.23;3.37;;;;;15.80;102102.00;;;;12839534;22;20641;-76
2021/08/23 22:38:34;;;;;;;8.40;3.63;;;;;15.70;102101.00;;;;12888674;22;20189;-76
2021/08/23 22:43:35;;;;;;;8.87;3.80;;;;;15.60;102089.00;;;;12889945;22;20174;-76
2021/08/23 22:48:36;;;;;;;5.33;4.00;;;;;15.50;102092.00;;;;12915661;22;20176;-76
2021/08/23 22:53:38;;;;;;;4.65;3.35;;;;;15.50;102088.00;;;;12864513;22;20201;-76
2021/08/23 22:58:41;;;;;;;6.77;4.10;;;;;15.40;102084.00;;;;12890490;22;20232;-77
2021/08/23 23:03:42;;;;;;;11.53;4.60;;;;;15.30;102085.00;;;;12889992;22;20186;-77
2021/08/23 23:08:44;;;;;;;9.53;3.93;;;;;15.20;102085.00;;;;12865366;22;20170;-76
2021/08/23 23:13:45;;;;;;;6.93;4.90;;;;;15.20;102086.00;;;;12889991;22;20193;-76
2021/08/23 23:18:46;;;;;;;7.83;5.20;;;;;15.10;102091.00;;;;12910373;22;20196;-76
2021/08/23 23:23:47;;;;;;;8.97;4.60;;;;;15.00;102095.00;;;;12840448;22;20174;-76
2021/08/23 23:28:48;;;;;;;8.97;4.30;;;;;15.00;102090.00;;;;12864671;22;20174;-76
2021/08/23 23:33:49;;;;;;;6.70;5.20;;;;;14.80;102088.00;;;;12865439;22;20663;-77
2021/08/23 23:39:10;;;;;;;6.57;5.30;;;;;14.80;102093.00;;;;12894487;22;20737;-76
2021/08/23 23:44:11;;;;;;;8.63;5.47;;;;;14.70;102084.00;;;;12889596;22;20166;-76
2021/08/23 23:49:13;;;;;;;7.00;4.87;;;;;14.60;102092.00;;;;12934783;22;20343;-76
2021/08/23 23:54:14;;;;;;;7.70;5.30;;;;;14.50;102088.00;;;;12864298;22;20165;-76
2021/08/23 23:59:15;;;;;;;5.20;4.57;;;;;14.40;102089.00;;;;12889721;22;20801;-77
